Sedona Information

FAA: SEZ - ICAO: KSEZ

Sedona (Airport) Location

State Arizona
County Yavapai
City Sedona
Sedona (Airport) is 2 miles southwest of Sedona, AZ.
Latitude 34-50-54.9210N
Longitude 111-47-18.4110W
Elevation 4,830ft

Sedona METARs

METAR KSEZ 301755Z AUTO 00000KT 10SM CLR 17/M02 A3025 RMK AO2
Altimeter 30.25"
Temperature 17.0°C (62.6°F)
Wind 0° at 0KT
Clouds Skies are clear.
Visibility 10.0mi
Time observed: 2021-11-30T17:55:00Z

Sedona (Airport) Details

Status Operational
Activation May 1956
Ownership Public
Usage Public
Chart PHOENIX
ATC on-site No
Beacon schedule sunset-sunrise
Beacon color clear green

Sedona (Airport) Contacts

Owner YAVAPAI COUNTY
Owner address 1015 FAIR ST., PRESCOTT, AZ 86305
Owner phone (928) 771-3200
Manager MITCH KELLDORF
Manager address 16114 N. 81ST STREET, SCOTTSDALE, AZ 85260
Manager phone 480-276-5000

Sedona Radio Frequencies

Sedona (Airport) Radio Frequencies

UNICOM 123
Common traffic advisory frequency (CTAF) 123